Time;durP1;ratioP1;P1;durP2;ratioP2;P2;SDS_P1;SDS_P2;PMS_P1;PMS_P2;Temp;Humidity;BMP_temperature;BMP_pressure;BME280_temperature;BME280_humidity;BME280_pressure;Samples;Min_cycle;Max_cycle;Signal;HPM_P1;HPM_P2
2021/06/22 00:01:18;;;;;;;7.83;7.03;;;13.90;99.90;;;;;;4961819;29;20804;-50
2021/06/22 00:03:45;;;;;;;8.43;7.17;;;13.80;99.90;;;;;;4955301;28;20471;-49
2021/06/22 00:06:13;;;;;;;7.73;6.93;;;13.80;99.90;;;;;;4959463;28;20475;-46
2021/06/22 00:08:40;;;;;;;9.13;8.10;;;13.80;99.90;;;;;;4961481;28;20433;-46
2021/06/22 00:11:07;;;;;;;10.80;8.80;;;13.80;99.90;;;;;;4961476;28;20473;-46
2021/06/22 00:13:34;;;;;;;9.53;7.90;;;13.80;99.90;;;;;;4961056;29;20471;-46
2021/06/22 00:16:01;;;;;;;13.87;10.23;;;13.70;99.90;;;;;;4961784;28;20470;-49
2021/06/22 00:18:30;;;;;;;9.27;7.83;;;13.70;99.90;;;;;;4962555;28;20467;-49
2021/06/22 00:20:57;;;;;;;10.90;9.30;;;13.70;99.90;;;;;;4960913;29;20445;-46
2021/06/22 00:23:24;;;;;;;9.27;8.13;;;13.60;99.90;;;;;;4961335;29;20445;-47
2021/06/22 00:25:51;;;;;;;8.60;7.70;;;13.50;99.90;;;;;;4961285;29;20445;-47
2021/06/22 00:28:21;;;;;;;10.37;7.87;;;13.60;99.90;;;;;;4960587;29;20562;-50
2021/06/22 00:30:48;;;;;;;8.80;8.00;;;13.60;99.90;;;;;;4960200;29;20497;-53
2021/06/22 00:33:15;;;;;;;9.43;8.50;;;13.60;99.90;;;;;;4960644;29;20918;-51
2021/06/22 00:35:46;;;;;;;11.83;9.80;;;13.60;99.90;;;;;;4960268;29;20826;-52
2021/06/22 00:38:13;;;;;;;13.10;11.30;;;13.60;99.90;;;;;;4960507;28;20478;-53
2021/06/22 00:40:40;;;;;;;14.30;11.70;;;13.50;99.90;;;;;;4960670;28;20538;-55
2021/06/22 00:43:07;;;;;;;14.47;12.90;;;13.60;99.90;;;;;;4960625;29;20519;-53
2021/06/22 00:45:35;;;;;;;16.73;15.03;;;13.50;99.90;;;;;;4960709;29;20526;-49
2021/06/22 00:48:04;;;;;;;18.10;16.20;;;13.50;99.90;;;;;;4961116;29;20446;-46
2021/06/22 00:50:32;;;;;;;17.93;16.00;;;13.50;99.90;;;;;;4960652;28;20471;-46
2021/06/22 00:53:02;;;;;;;16.73;14.93;;;13.50;99.90;;;;;;4960458;29;20474;-49
2021/06/22 00:55:29;;;;;;;17.33;15.20;;;13.50;99.90;;;;;;4960607;28;20768;-50
2021/06/22 00:57:59;;;;;;;22.30;20.00;;;13.50;99.90;;;;;;4960666;28;20816;-47
2021/06/22 01:00:27;;;;;;;23.83;21.33;;;13.30;99.90;;;;;;4955930;28;20498;-46
2021/06/22 01:02:55;;;;;;;25.60;22.90;;;13.30;99.90;;;;;;4960323;29;20449;-47
2021/06/22 01:05:23;;;;;;;25.70;23.17;;;13.30;99.90;;;;;;4956172;28;20453;-48
2021/06/22 01:07:53;;;;;;;26.97;24.37;;;13.40;99.90;;;;;;4955193;28;20451;-47
2021/06/22 01:10:23;;;;;;;27.33;24.43;;;13.40;99.90;;;;;;4960208;29;20565;-46
2021/06/22 01:12:51;;;;;;;25.83;22.17;;;13.30;99.90;;;;;;4961956;28;20469;-46
2021/06/22 01:15:20;;;;;;;23.23;19.97;;;13.30;99.90;;;;;;4959877;29;20532;-46
2021/06/22 01:17:50;;;;;;;21.80;19.53;;;13.20;99.90;;;;;;4956568;29;20445;-46
2021/06/22 01:20:17;;;;;;;23.53;21.10;;;13.10;99.90;;;;;;4959939;29;20544;-46
2021/06/22 01:22:47;;;;;;;23.90;20.97;;;12.90;99.90;;;;;;4959548;29;20792;-46
2021/06/22 01:25:16;;;;;;;24.40;21.43;;;12.90;99.90;;;;;;4959059;29;20518;-46
2021/06/22 01:27:44;;;;;;;23.83;21.23;;;12.80;99.90;;;;;;4959652;29;20473;-46
2021/06/22 01:30:14;;;;;;;25.60;22.80;;;12.80;99.90;;;;;;4958358;28;20508;-46
2021/06/22 01:32:43;;;;;;;25.60;23.00;;;12.90;99.90;;;;;;4959906;29;20466;-53
2021/06/22 01:35:11;;;;;;;27.93;24.83;;;12.80;99.90;;;;;;4953423;29;20498;-55
2021/06/22 01:37:52;;;;;;;27.73;24.40;;;12.70;99.90;;;;;;4954081;29;20442;-53
2021/06/22 01:40:19;;;;;;;29.90;24.23;;;12.60;99.90;;;;;;4960055;29;20486;-53
2021/06/22 01:42:46;;;;;;;29.53;23.47;;;12.50;99.90;;;;;;4959212;29;20474;-52
2021/06/22 01:45:14;;;;;;;24.93;22.23;;;12.50;99.90;;;;;;4959169;28;20451;-55
2021/06/22 01:47:41;;;;;;;26.73;23.93;;;12.50;99.90;;;;;;4959896;29;20474;-48
2021/06/22 01:50:09;;;;;;;24.50;19.50;;;12.50;99.90;;;;;;4959401;28;20573;-54
2021/06/22 01:52:37;;;;;;;24.60;19.33;;;12.50;99.90;;;;;;4959497;28;20445;-52
2021/06/22 01:57:47;;;;;;;19.83;17.03;;;12.50;99.90;;;;;;4958837;29;20433;-55
2021/06/22 02:00:15;;;;;;;18.17;14.67;;;12.60;99.90;;;;;;4958517;29;20874;-46
2021/06/22 02:02:42;;;;;;;17.13;15.43;;;12.60;99.90;;;;;;4959167;28;20549;-49
2021/06/22 02:05:11;;;;;;;17.60;15.63;;;12.70;99.90;;;;;;4950647;28;20904;-48
2021/06/22 02:07:38;;;;;;;17.50;15.23;;;12.70;99.90;;;;;;4957053;29;20442;-48
2021/06/22 02:10:10;;;;;;;15.07;13.43;;;12.70;99.90;;;;;;4954214;29;20445;-45
2021/06/22 02:12:37;;;;;;;18.07;13.00;;;12.70;99.90;;;;;;4958869;29;20588;-46
2021/06/22 02:15:06;;;;;;;15.67;14.07;;;12.70;99.90;;;;;;4958865;28;20502;-48
2021/06/22 02:17:33;;;;;;;15.83;13.73;;;12.70;99.90;;;;;;4957490;29;20765;-45
2021/06/22 02:20:00;;;;;;;16.33;14.40;;;12.70;99.90;;;;;;4959115;28;20479;-48
2021/06/22 02:22:27;;;;;;;16.27;14.67;;;12.70;99.90;;;;;;4957869;29;20475;-47
2021/06/22 02:24:54;;;;;;;16.07;14.47;;;12.70;99.90;;;;;;4958608;29;20448;-45
2021/06/22 02:27:27;;;;;;;16.90;14.10;;;12.70;99.90;;;;;;4957483;29;20465;-45
2021/06/22 02:29:55;;;;;;;15.37;13.77;;;12.70;99.90;;;;;;4958461;29;20467;-45
2021/06/22 02:32:22;;;;;;;12.83;10.93;;;12.70;99.90;;;;;;4957943;29;20475;-47
2021/06/22 02:34:50;;;;;;;12.70;11.50;;;12.70;99.90;;;;;;4958687;29;20510;-46
2021/06/22 02:37:18;;;;;;;14.40;11.30;;;12.70;99.90;;;;;;4958349;29;20474;-45
2021/06/22 02:39:45;;;;;;;13.07;11.77;;;12.80;99.90;;;;;;4958501;29;20485;-46
2021/06/22 03:19:15;;;;;;;11.40;9.00;;;12.70;99.90;;;;;;5500482;23;20492;-45
2021/06/22 03:21:43;;;;;;;7.20;6.50;;;12.70;99.90;;;;;;4997209;28;20461;-47
2021/06/22 03:24:11;;;;;;;9.63;7.60;;;12.60;99.90;;;;;;4997310;28;20473;-49
2021/06/22 03:26:39;;;;;;;7.90;7.10;;;12.70;99.90;;;;;;4997272;28;20527;-46
2021/06/22 03:29:07;;;;;;;8.37;6.43;;;12.70;99.90;;;;;;4996001;28;20543;-45
2021/06/22 03:31:34;;;;;;;8.67;6.87;;;12.70;99.90;;;;;;4997066;28;20522;-45
2021/06/22 03:34:01;;;;;;;6.60;5.60;;;12.70;99.90;;;;;;4996996;28;20473;-46
2021/06/22 03:36:30;;;;;;;7.97;5.70;;;12.70;99.90;;;;;;4996133;28;20554;-52
2021/06/22 03:38:57;;;;;;;7.10;6.40;;;12.60;99.90;;;;;;4997453;28;20438;-50
2021/06/22 03:41:24;;;;;;;7.90;7.10;;;12.70;99.90;;;;;;5000607;28;20472;-47
2021/06/22 03:43:52;;;;;;;7.73;7.00;;;12.60;99.90;;;;;;5000268;28;20791;-50
2021/06/22 03:46:19;;;;;;;9.70;7.30;;;12.70;99.90;;;;;;5000575;28;20505;-52
2021/06/22 03:48:46;;;;;;;9.00;8.13;;;12.70;99.90;;;;;;4999617;28;20477;-48
2021/06/22 03:51:14;;;;;;;8.73;7.10;;;12.60;99.90;;;;;;5000112;28;20464;-45
2021/06/22 03:53:43;;;;;;;8.60;7.70;;;12.70;99.90;;;;;;5000246;28;20571;-49
2021/06/22 03:56:10;;;;;;;9.27;8.43;;;12.80;99.90;;;;;;5000071;28;20607;-46
2021/06/22 03:58:40;;;;;;;9.03;8.10;;;12.80;99.90;;;;;;5000101;28;20472;-48
2021/06/22 04:01:07;;;;;;;9.53;7.60;;;12.80;99.90;;;;;;4992947;28;20485;-48
2021/06/22 04:03:35;;;;;;;10.37;7.70;;;12.70;99.90;;;;;;4994127;28;20473;-45
2021/06/22 04:06:02;;;;;;;10.63;8.67;;;12.70;99.90;;;;;;4997489;28;20444;-47
2021/06/22 04:08:29;;;;;;;10.57;8.73;;;12.60;99.90;;;;;;4999932;28;20869;-46
2021/06/22 04:10:58;;;;;;;8.77;7.87;;;12.70;99.90;;;;;;4999835;28;20462;-44
2021/06/22 04:13:25;;;;;;;11.30;7.63;;;12.70;99.90;;;;;;5002038;28;20793;-44
2021/06/22 04:15:52;;;;;;;14.77;8.90;;;12.70;99.90;;;;;;4999024;28;20479;-45
2021/06/22 04:18:21;;;;;;;8.47;7.37;;;12.80;99.90;;;;;;5000381;28;20508;-45
2021/06/22 04:20:49;;;;;;;9.87;7.50;;;12.90;99.90;;;;;;4999579;28;20516;-45
2021/06/22 04:23:16;;;;;;;10.03;7.50;;;12.90;99.90;;;;;;4999792;28;20465;-44
2021/06/22 04:25:44;;;;;;;13.07;6.40;;;13.00;99.90;;;;;;5000103;28;20510;-46
2021/06/22 04:28:12;;;;;;;14.70;7.00;;;13.10;99.90;;;;;;4999316;28;20842;-45
2021/06/22 04:30:40;;;;;;;7.30;6.50;;;13.10;99.90;;;;;;4999160;28;20861;-43
2021/06/22 04:33:12;;;;;;;9.80;6.67;;;13.20;99.90;;;;;;4999973;28;20481;-44
2021/06/22 04:35:39;;;;;;;8.90;6.83;;;13.20;99.90;;;;;;4998522;28;20595;-47
2021/06/22 04:38:10;;;;;;;9.03;6.60;;;13.30;99.90;;;;;;4998646;28;20452;-44
2021/06/22 04:40:41;;;;;;;9.70;6.60;;;13.40;99.90;;;;;;4998977;28;20446;-43
2021/06/22 04:43:09;;;;;;;7.60;6.83;;;13.40;99.90;;;;;;4999768;28;20444;-45
2021/06/22 04:45:40;;;;;;;10.80;6.73;;;13.30;99.90;;;;;;4999123;28;20450;-45
2021/06/22 04:48:08;;;;;;;13.13;7.73;;;13.40;99.90;;;;;;4999698;28;20473;-46
2021/06/22 04:50:35;;;;;;;11.70;7.03;;;13.50;99.90;;;;;;4998995;28;20447;-49
2021/06/22 04:53:02;;;;;;;10.90;7.67;;;13.60;99.90;;;;;;4999073;28;20532;-47
2021/06/22 04:55:29;;;;;;;11.87;7.40;;;13.50;99.90;;;;;;4999015;28;20500;-43
2021/06/22 04:58:02;;;;;;;10.40;7.70;;;13.60;99.90;;;;;;4999402;28;20473;-43
2021/06/22 05:00:31;;;;;;;9.33;6.77;;;13.50;99.90;;;;;;4997245;28;20473;-46
2021/06/22 05:03:00;;;;;;;8.43;7.13;;;13.50;99.90;;;;;;4992407;28;20476;-45
2021/06/22 05:05:28;;;;;;;11.23;6.17;;;13.40;99.90;;;;;;4987495;28;20469;-48
2021/06/22 05:08:00;;;;;;;9.23;7.40;;;13.50;99.90;;;;;;4998755;28;20903;-44
2021/06/22 05:10:27;;;;;;;11.00;7.13;;;13.50;99.90;;;;;;4999567;28;20465;-44
2021/06/22 05:12:54;;;;;;;12.00;7.57;;;13.50;99.90;;;;;;4999094;28;20885;-44
2021/06/22 05:15:21;;;;;;;14.53;7.23;;;13.60;99.90;;;;;;4998859;28;20475;-45
2021/06/22 05:17:48;;;;;;;9.13;7.10;;;13.50;99.90;;;;;;4998820;28;20524;-44
2021/06/22 05:20:17;;;;;;;8.77;6.67;;;13.60;99.90;;;;;;4998310;28;20554;-45
2021/06/22 05:22:47;;;;;;;8.87;7.87;;;13.60;99.90;;;;;;4997932;28;20476;-46
2021/06/22 05:25:17;;;;;;;14.43;7.20;;;13.70;99.90;;;;;;4999029;28;20877;-46
2021/06/22 05:27:44;;;;;;;12.17;6.97;;;13.70;99.90;;;;;;4998367;28;20444;-45
2021/06/22 05:30:12;;;;;;;14.90;8.03;;;13.70;99.90;;;;;;4989780;28;20857;-43
2021/06/22 05:32:41;;;;;;;11.33;7.33;;;13.70;99.90;;;;;;4998336;28;20469;-43
2021/06/22 05:35:10;;;;;;;15.70;8.30;;;13.80;99.90;;;;;;4998371;28;20479;-44
2021/06/22 05:37:41;;;;;;;17.93;7.30;;;13.70;99.90;;;;;;4998086;28;20468;-45
2021/06/22 05:40:10;;;;;;;11.43;7.67;;;13.70;99.90;;;;;;4998506;28;20535;-45
2021/06/22 05:42:39;;;;;;;8.60;7.23;;;13.70;99.90;;;;;;4998674;28;20852;-45
2021/06/22 05:45:08;;;;;;;10.33;7.57;;;13.70;99.90;;;;;;4998332;28;20751;-44
2021/06/22 05:47:35;;;;;;;10.23;7.40;;;13.70;99.90;;;;;;4998254;28;20465;-45
2021/06/22 05:50:02;;;;;;;9.43;8.43;;;13.60;99.90;;;;;;4998407;28;20469;-45
2021/06/22 05:52:35;;;;;;;13.70;8.40;;;13.60;99.90;;;;;;4998569;28;20531;-45
2021/06/22 05:55:16;;;;;;;10.90;7.50;;;13.60;99.90;;;;;;4998637;28;20912;-44
2021/06/22 05:57:49;;;;;;;13.37;9.30;;;13.60;99.90;;;;;;4998453;28;20475;-45
2021/06/22 06:00:18;;;;;;;11.33;9.00;;;13.50;99.90;;;;;;4991082;28;20476;-46
2021/06/22 06:02:45;;;;;;;12.13;9.40;;;13.50;99.90;;;;;;4994167;28;21696;-45
2021/06/22 06:05:14;;;;;;;10.60;9.57;;;13.50;99.90;;;;;;4993816;28;20543;-44
2021/06/22 06:07:41;;;;;;;11.80;9.80;;;13.50;99.90;;;;;;4997445;28;20508;-45
2021/06/22 06:10:11;;;;;;;13.80;8.93;;;13.40;99.90;;;;;;4997396;28;20473;-44
2021/06/22 06:12:38;;;;;;;9.73;8.80;;;13.40;99.90;;;;;;4998133;28;20465;-45
2021/06/22 06:15:07;;;;;;;10.27;9.23;;;13.40;99.90;;;;;;4998070;28;20475;-44
2021/06/22 06:17:34;;;;;;;15.60;9.77;;;13.30;99.90;;;;;;4997651;28;20469;-45
2021/06/22 06:20:02;;;;;;;10.90;8.63;;;13.30;99.90;;;;;;4997397;28;20534;-43
2021/06/22 06:22:31;;;;;;;13.70;8.83;;;13.30;99.90;;;;;;4997866;28;20496;-43
2021/06/22 06:25:01;;;;;;;9.83;8.83;;;13.30;99.90;;;;;;4998259;28;20528;-45
2021/06/22 06:27:38;;;;;;;10.50;9.50;;;13.40;99.90;;;;;;4997634;28;20502;-44
2021/06/22 06:30:08;;;;;;;12.17;9.67;;;13.40;99.90;;;;;;4996903;28;20479;-46
2021/06/22 06:32:35;;;;;;;10.10;8.43;;;13.60;99.90;;;;;;4998028;28;20563;-45
2021/06/22 06:35:06;;;;;;;12.17;9.70;;;13.60;99.90;;;;;;4996948;28;20450;-45
2021/06/22 06:37:33;;;;;;;11.47;9.20;;;13.60;99.90;;;;;;4997245;28;20970;-44
2021/06/22 06:40:00;;;;;;;14.00;9.73;;;13.70;99.90;;;;;;4997250;28;20952;-44
2021/06/22 06:42:28;;;;;;;12.20;10.03;;;13.70;99.90;;;;;;4998108;28;20780;-45
2021/06/22 06:44:55;;;;;;;15.30;9.67;;;13.70;99.90;;;;;;4998085;28;20448;-45
2021/06/22 07:24:35;;;;;;;14.80;11.70;;;14.00;99.90;;;;;;3777527;23;20800;-45
2021/06/22 07:27:04;;;;;;;12.50;11.17;;;14.00;99.90;;;;;;5001784;28;20468;-45
2021/06/22 07:29:31;;;;;;;14.07;11.60;;;13.90;99.90;;;;;;4999751;28;20532;-45
2021/06/22 07:32:03;;;;;;;13.27;11.90;;;14.00;99.90;;;;;;5001079;28;20458;-48
2021/06/22 07:34:30;;;;;;;13.27;10.60;;;14.00;99.90;;;;;;5000536;28;20900;-44
2021/06/22 07:36:57;;;;;;;13.70;11.00;;;14.30;99.90;;;;;;5000811;28;20504;-46
2021/06/22 07:39:24;;;;;;;12.67;11.30;;;14.40;99.90;;;;;;5000648;28;20468;-45
2021/06/22 07:41:52;;;;;;;12.80;10.03;;;14.20;99.90;;;;;;5000883;28;20476;-45
2021/06/22 07:44:19;;;;;;;15.13;11.90;;;14.30;99.90;;;;;;5000365;28;20873;-48
2021/06/22 07:46:49;;;;;;;12.27;11.17;;;14.20;99.90;;;;;;5000417;28;20464;-47
2021/06/22 07:49:19;;;;;;;14.40;10.80;;;14.20;99.90;;;;;;5000743;28;20488;-45
2021/06/22 07:51:46;;;;;;;11.07;9.47;;;14.40;99.90;;;;;;5000656;28;20915;-48
2021/06/22 07:54:13;;;;;;;13.13;11.43;;;14.30;99.90;;;;;;5000349;28;20476;-45
2021/06/22 07:56:40;;;;;;;16.63;11.17;;;14.40;99.90;;;;;;5000128;28;20504;-45
2021/06/22 07:59:09;;;;;;;15.50;11.93;;;14.40;99.90;;;;;;4999125;28;20551;-48
2021/06/22 08:01:36;;;;;;;12.33;10.80;;;14.40;99.90;;;;;;5000672;28;20443;-53
2021/06/22 08:04:11;;;;;;;13.03;10.17;;;14.30;99.90;;;;;;4990922;28;20455;-51
2021/06/22 08:06:38;;;;;;;14.13;10.10;;;14.30;99.90;;;;;;4999342;28;20547;-48
2021/06/22 08:09:07;;;;;;;13.10;11.33;;;14.40;99.90;;;;;;4997518;28;20444;-48
2021/06/22 08:11:34;;;;;;;14.83;10.50;;;14.40;99.90;;;;;;4999774;28;20469;-47
2021/06/22 08:14:01;;;;;;;15.40;11.30;;;14.40;99.90;;;;;;4999629;28;20902;-45
2021/06/22 08:16:29;;;;;;;10.80;9.70;;;14.30;99.90;;;;;;5000780;28;20785;-47
2021/06/22 08:18:56;;;;;;;15.10;10.90;;;14.30;99.90;;;;;;4999898;28;20821;-45
2021/06/22 08:21:24;;;;;;;12.90;11.33;;;14.40;99.90;;;;;;5000513;28;20483;-45
2021/06/22 08:23:51;;;;;;;13.00;11.80;;;14.40;99.90;;;;;;4999414;28;21071;-44
2021/06/22 08:26:18;;;;;;;13.73;11.10;;;14.40;99.90;;;;;;4997771;28;20465;-44
2021/06/22 08:28:45;;;;;;;12.80;11.47;;;14.50;99.90;;;;;;4998227;28;20469;-45
2021/06/22 08:31:12;;;;;;;16.07;11.40;;;14.60;99.90;;;;;;4998582;28;20481;-44
2021/06/22 08:33:42;;;;;;;15.40;11.80;;;14.80;99.90;;;;;;4996647;28;20531;-44
2021/06/22 08:36:10;;;;;;;12.83;11.60;;;15.10;99.90;;;;;;4998530;28;20599;-45
2021/06/22 08:38:40;;;;;;;13.07;11.77;;;15.40;99.90;;;;;;4999741;28;20527;-46
2021/06/22 08:41:08;;;;;;;11.67;10.47;;;15.60;99.90;;;;;;4999830;28;20480;-45
2021/06/22 08:43:40;;;;;;;10.97;9.80;;;15.80;99.90;;;;;;4999572;28;20447;-52
2021/06/22 08:46:09;;;;;;;11.30;10.20;;;16.20;99.90;;;;;;4998990;28;20552;-46
2021/06/22 08:48:36;;;;;;;12.07;10.73;;;16.30;99.90;;;;;;4999662;28;20469;-46
2021/06/22 09:28:34;;;;;;;7.97;7.27;;;17.90;99.90;;;;;;5379562;23;20461;-49
2021/06/22 09:31:03;;;;;;;8.90;7.10;;;17.60;99.90;;;;;;4991816;28;20457;-45
2021/06/22 09:33:36;;;;;;;9.00;6.37;;;17.60;99.90;;;;;;4998522;28;20893;-44
2021/06/22 09:36:11;;;;;;;7.60;6.50;;;17.50;99.90;;;;;;4997657;28;20469;-46
2021/06/22 09:38:41;;;;;;;7.07;6.40;;;17.50;99.90;;;;;;4997904;28;20522;-45
2021/06/22 09:41:14;;;;;;;6.40;5.80;;;17.30;99.90;;;;;;4998592;28;20473;-46
2021/06/22 09:43:45;;;;;;;6.90;6.30;;;17.30;99.90;;;;;;4998607;28;20476;-46
2021/06/22 09:46:13;;;;;;;6.33;5.73;;;17.20;99.90;;;;;;4998233;28;20480;-48
2021/06/22 09:48:42;;;;;;;8.57;7.30;;;17.20;99.90;;;;;;4998653;28;20473;-47
2021/06/22 09:51:10;;;;;;;9.67;6.90;;;17.10;99.90;;;;;;4998881;28;20768;-51
2021/06/22 09:53:37;;;;;;;8.27;6.40;;;16.90;99.90;;;;;;4998142;28;20468;-49
2021/06/22 09:56:05;;;;;;;7.13;6.20;;;16.70;99.90;;;;;;4997840;28;20469;-44
2021/06/22 09:58:42;;;;;;;7.77;7.00;;;16.60;99.90;;;;;;4996947;28;20531;-45
2021/06/22 10:01:34;;;;;;;7.80;6.20;;;16.60;99.90;;;;;;4998178;28;20515;-49
2021/06/22 10:04:22;;;;;;;6.43;5.80;;;16.70;99.90;;;;;;4991496;28;20530;-46
2021/06/22 10:06:55;;;;;;;7.83;7.03;;;16.80;99.90;;;;;;4996797;28;20450;-44
2021/06/22 10:09:28;;;;;;;9.17;6.77;;;17.00;99.90;;;;;;4996941;28;20558;-46
2021/06/22 10:12:01;;;;;;;6.67;6.10;;;17.30;99.90;;;;;;4997884;28;20453;-47
2021/06/22 10:14:33;;;;;;;8.73;7.17;;;17.60;99.90;;;;;;4998199;28;20467;-48
2021/06/22 10:17:04;;;;;;;7.83;7.07;;;17.80;99.90;;;;;;4996747;28;20929;-45
2021/06/22 10:19:32;;;;;;;7.90;7.20;;;17.80;99.90;;;;;;4997791;28;20443;-49
2021/06/22 10:22:02;;;;;;;10.03;7.40;;;17.80;99.90;;;;;;4997552;28;20461;-50
2021/06/22 10:24:30;;;;;;;7.83;7.03;;;18.00;99.90;;;;;;4997512;28;20551;-45
2021/06/22 10:26:59;;;;;;;7.67;6.80;;;17.70;99.90;;;;;;4997409;28;20825;-46
2021/06/22 10:29:27;;;;;;;10.33;7.30;;;17.70;99.90;;;;;;4997666;28;20493;-45
2021/06/22 10:31:56;;;;;;;8.33;6.60;;;17.90;99.90;;;;;;4996159;28;20472;-43
2021/06/22 10:34:25;;;;;;;8.90;7.73;;;18.00;99.90;;;;;;4997020;28;20476;-45
2021/06/22 10:37:00;;;;;;;9.03;8.23;;;17.80;99.90;;;;;;4997711;28;20503;-43
2021/06/22 10:39:31;;;;;;;8.17;7.33;;;17.90;99.90;;;;;;4994618;28;20908;-45
2021/06/22 10:42:08;;;;;;;11.10;8.10;;;18.00;99.90;;;;;;4997879;28;20465;-45
2021/06/22 10:44:47;;;;;;;8.70;7.70;;;18.20;99.90;;;;;;4997888;28;20472;-50
2021/06/22 10:47:36;;;;;;;9.27;8.33;;;18.50;99.90;;;;;;4997427;28;20523;-46
2021/06/22 10:50:33;;;;;;;9.37;8.07;;;18.70;99.90;;;;;;4993589;28;20498;-47
2021/06/22 11:30:58;;;;;;;11.60;8.00;;;18.70;99.90;;;;;;2946056;23;20544;-55
2021/06/22 12:07:59;;;;;;;9.23;8.43;;;18.10;99.90;;;;;;4178027;23;20756;-55
2021/06/22 12:10:27;;;;;;;11.13;9.70;;;18.20;99.90;;;;;;4999533;28;20472;-54
2021/06/22 12:12:54;;;;;;;9.50;8.60;;;18.30;99.90;;;;;;4999946;28;20527;-56
2021/06/22 12:15:35;;;;;;;8.93;7.97;;;18.20;99.90;;;;;;4999662;28;20880;-56
2021/06/22 12:18:02;;;;;;;7.20;6.50;;;18.30;99.90;;;;;;4999867;28;20503;-57
2021/06/22 12:20:31;;;;;;;8.13;7.20;;;18.20;99.90;;;;;;5000161;28;20812;-56
2021/06/22 12:23:07;;;;;;;10.03;8.03;;;18.10;99.90;;;;;;4999741;28;20513;-54
2021/06/22 12:25:37;;;;;;;11.30;7.47;;;18.20;99.90;;;;;;4999696;28;20469;-53
2021/06/22 12:28:04;;;;;;;10.20;9.20;;;18.10;99.90;;;;;;4998895;28;20531;-51
2021/06/22 12:30:37;;;;;;;11.67;8.73;;;17.90;99.90;;;;;;4999146;28;20468;-45
2021/06/22 12:33:14;;;;;;;12.63;8.63;;;18.00;99.90;;;;;;4999925;28;20477;-47
2021/06/22 12:35:43;;;;;;;10.40;7.73;;;17.90;99.90;;;;;;4999448;28;20504;-48
2021/06/22 12:38:14;;;;;;;9.87;8.87;;;17.90;99.90;;;;;;4999024;28;20499;-52
2021/06/22 12:40:46;;;;;;;11.23;9.50;;;18.00;99.90;;;;;;4999364;28;20473;-47
2021/06/22 12:43:15;;;;;;;10.73;9.20;;;17.90;99.90;;;;;;4996509;28;20465;-46
2021/06/22 12:45:42;;;;;;;10.90;9.07;;;17.70;99.90;;;;;;5000134;28;20495;-46
2021/06/22 12:48:10;;;;;;;10.57;9.47;;;17.50;99.90;;;;;;4993765;28;20520;-47
2021/06/22 12:50:40;;;;;;;12.53;10.30;;;17.80;99.90;;;;;;4998767;28;20500;-47
2021/06/22 12:53:10;;;;;;;10.93;9.13;;;18.10;99.90;;;;;;4990461;28;20801;-47
2021/06/22 12:55:47;;;;;;;12.03;8.70;;;18.50;99.90;;;;;;5008030;28;20469;-49
2021/06/22 12:58:15;;;;;;;9.37;8.07;;;18.80;99.90;;;;;;5008349;28;20502;-45
2021/06/22 13:00:44;;;;;;;10.53;9.43;;;19.40;99.90;;;;;;5002244;28;20473;-50
2021/06/22 13:03:14;;;;;;;14.53;9.00;;;19.80;98.50;;;;;;4999481;28;20484;-51
2021/06/22 13:05:43;;;;;;;9.40;8.60;;;20.30;96.80;;;;;;4996138;28;20480;-50
2021/06/22 13:08:16;;;;;;;11.57;7.47;;;20.50;94.30;;;;;;4997855;28;20493;-46
2021/06/22 13:50:16;;;;;;;9.70;8.70;;;17.40;99.90;;;;;;4620042;23;20587;-45
2021/06/22 13:52:47;;;;;;;10.30;9.40;;;17.40;99.90;;;;;;4998319;28;20444;-44
2021/06/22 13:55:30;;;;;;;10.00;9.13;;;17.30;99.90;;;;;;4997834;28;20832;-47
2021/06/22 13:57:59;;;;;;;12.00;9.40;;;17.30;99.90;;;;;;4997869;28;20500;-45
2021/06/22 14:00:28;;;;;;;12.33;8.40;;;17.10;99.90;;;;;;4995908;28;20506;-46
2021/06/22 14:02:55;;;;;;;8.93;8.03;;;17.20;99.90;;;;;;4987536;28;20949;-48
2021/06/22 14:05:27;;;;;;;10.00;9.10;;;17.10;99.90;;;;;;4992854;28;20902;-47
2021/06/22 14:07:59;;;;;;;10.40;9.40;;;17.10;99.90;;;;;;4997492;28;20461;-49
2021/06/22 14:10:32;;;;;;;11.03;9.93;;;17.20;99.90;;;;;;4997233;28;20468;-45
2021/06/22 14:13:02;;;;;;;10.53;9.37;;;17.10;99.90;;;;;;4997887;28;20457;-45
2021/06/22 14:15:29;;;;;;;9.33;8.30;;;17.10;99.90;;;;;;4997182;28;20515;-47
2021/06/22 14:17:57;;;;;;;13.60;8.30;;;17.10;99.90;;;;;;4997576;28;20504;-51
2021/06/22 14:20:29;;;;;;;10.47;8.83;;;17.20;99.90;;;;;;4996257;28;20439;-46
2021/06/22 14:22:57;;;;;;;10.40;8.40;;;17.20;99.90;;;;;;4997403;28;20476;-45
2021/06/22 14:25:25;;;;;;;11.67;8.73;;;17.40;99.90;;;;;;4995541;28;20508;-44
2021/06/22 14:27:55;;;;;;;8.37;7.57;;;17.30;99.90;;;;;;4996651;28;20443;-45
2021/06/22 14:30:23;;;;;;;9.60;8.60;;;17.20;99.90;;;;;;4996169;28;20451;-46
2021/06/22 14:32:52;;;;;;;9.63;8.83;;;17.10;99.90;;;;;;4997780;28;20862;-45
2021/06/22 14:35:21;;;;;;;12.73;9.20;;;17.20;99.90;;;;;;4997168;28;20475;-45
2021/06/22 14:37:51;;;;;;;9.10;8.20;;;17.10;99.90;;;;;;4997602;28;20599;-44
2021/06/22 14:40:21;;;;;;;11.33;10.23;;;16.90;99.90;;;;;;4997302;28;20435;-45
2021/06/22 14:42:48;;;;;;;10.23;9.20;;;16.90;99.90;;;;;;4997938;28;20447;-50
2021/06/22 14:45:17;;;;;;;12.00;9.60;;;16.90;99.90;;;;;;4996779;28;20474;-53
2021/06/22 14:47:44;;;;;;;10.53;9.37;;;16.90;99.90;;;;;;4997517;28;20789;-46
2021/06/22 14:50:14;;;;;;;10.60;9.53;;;16.90;99.90;;;;;;4997349;28;20504;-45
2021/06/22 14:52:44;;;;;;;11.73;10.23;;;16.90;99.90;;;;;;4997641;28;20473;-48
2021/06/22 14:55:32;;;;;;;11.83;10.73;;;16.90;99.90;;;;;;4997547;28;20508;-45
2021/06/22 14:58:05;;;;;;;10.90;9.60;;;17.00;99.90;;;;;;4996996;28;20791;-46
2021/06/22 15:00:33;;;;;;;10.60;9.50;;;17.00;99.90;;;;;;4996035;28;20477;-44
2021/06/22 19:15:13;;;;;;;20.00;17.97;;;14.40;99.90;;;;;;2621602;23;20478;-62
2021/06/22 19:17:40;;;;;;;18.30;16.67;;;14.30;99.90;;;;;;5001284;28;20590;-62
2021/06/22 19:20:12;;;;;;;19.10;16.50;;;14.40;99.90;;;;;;4999426;28;20476;-61
2021/06/22 19:22:40;;;;;;;19.60;17.80;;;14.40;99.90;;;;;;4996285;28;20757;-61
2021/06/22 19:25:09;;;;;;;23.37;18.90;;;14.40;99.90;;;;;;4999707;28;20851;-60
2021/06/22 19:27:37;;;;;;;21.77;19.63;;;14.30;99.90;;;;;;4999396;28;20475;-61
2021/06/22 19:30:06;;;;;;;21.67;19.60;;;14.30;99.90;;;;;;4998585;28;20472;-61
2021/06/22 19:35:16;;;;;;;20.63;18.70;;;14.30;99.90;;;;;;5108874;23;20497;-61
2021/06/22 19:37:45;;;;;;;22.10;19.83;;;14.20;99.90;;;;;;4985977;28;20964;-61
2021/06/22 19:40:13;;;;;;;23.07;20.77;;;14.10;99.90;;;;;;4984387;28;20957;-61
2021/06/22 19:42:40;;;;;;;23.13;20.83;;;14.10;99.90;;;;;;5202663;23;21142;-61
2021/06/22 19:45:09;;;;;;;22.57;20.57;;;14.10;99.90;;;;;;5002365;28;20543;-61
2021/06/22 19:47:39;;;;;;;24.20;21.90;;;14.10;99.90;;;;;;4999663;28;20472;-60
2021/06/22 19:50:08;;;;;;;22.93;20.57;;;14.00;99.90;;;;;;4999800;28;20505;-60
2021/06/22 19:52:37;;;;;;;21.77;19.67;;;14.00;99.90;;;;;;5000350;28;20468;-61
2021/06/22 19:55:10;;;;;;;23.17;20.80;;;14.00;99.90;;;;;;5000877;28;20784;-61
2021/06/22 19:57:37;;;;;;;23.73;21.57;;;14.00;99.90;;;;;;4999257;28;20469;-61
2021/06/22 20:00:08;;;;;;;21.80;19.80;;;13.90;99.90;;;;;;4999239;28;20478;-62
2021/06/22 20:02:36;;;;;;;23.60;21.27;;;13.80;99.90;;;;;;4995753;28;20790;-62
2021/06/22 20:05:04;;;;;;;23.97;21.47;;;13.90;99.90;;;;;;4991324;28;20564;-61
2021/06/22 20:07:32;;;;;;;24.77;21.97;;;13.80;99.90;;;;;;5000733;28;20523;-62
2021/06/22 20:10:00;;;;;;;25.30;23.00;;;13.80;99.90;;;;;;4998549;28;20479;-61
2021/06/22 20:12:27;;;;;;;25.13;22.60;;;13.90;99.90;;;;;;4999056;28;20550;-61
2021/06/22 20:14:55;;;;;;;24.53;21.90;;;13.80;99.90;;;;;;4998243;28;20822;-62
2021/06/22 20:17:23;;;;;;;24.70;22.30;;;13.80;99.90;;;;;;4999815;28;20472;-62
2021/06/22 20:19:53;;;;;;;24.33;22.03;;;13.90;99.90;;;;;;4997308;28;20790;-62
2021/06/22 20:22:20;;;;;;;24.73;22.27;;;13.90;99.90;;;;;;5000661;28;20465;-62
2021/06/22 20:24:48;;;;;;;24.40;21.90;;;13.80;99.90;;;;;;4998664;28;20477;-62
2021/06/22 20:27:17;;;;;;;26.60;23.90;;;13.90;99.90;;;;;;4997723;28;20472;-62
2021/06/22 20:29:47;;;;;;;27.53;25.00;;;13.90;99.90;;;;;;4998085;28;20538;-62
2021/06/22 20:32:14;;;;;;;27.67;24.93;;;13.90;99.90;;;;;;4997793;28;20469;-61
2021/06/22 20:34:41;;;;;;;27.30;24.90;;;14.00;99.90;;;;;;4998608;28;20465;-62
2021/06/22 20:37:08;;;;;;;30.37;27.20;;;14.00;99.90;;;;;;4998879;28;20464;-62
2021/06/22 20:39:35;;;;;;;33.10;29.93;;;14.00;99.90;;;;;;4996855;28;20496;-62
2021/06/22 20:42:02;;;;;;;33.23;30.20;;;13.90;99.90;;;;;;4997855;28;20465;-62
2021/06/22 20:44:33;;;;;;;36.87;33.23;;;14.00;99.90;;;;;;4996343;28;20505;-61
2021/06/22 20:47:00;;;;;;;35.73;32.00;;;13.90;99.90;;;;;;4998224;28;20465;-62